Time;durP1;ratioP1;P1;durP2;ratioP2;P2;SDS_P1;SDS_P2;PMS_P1;PMS_P2;Temp;Humidity;BMP_temperature;BMP_pressure;BME280_temperature;BME280_humidity;BME280_pressure;Samples;Min_cycle;Max_cycle;Signal;HPM_P1;HPM_P2
2022/04/30 00:02:11;;;;;;;2.78;1.40;;;17.80;96.40;;;;;;5090066;28;20028;-69
2022/04/30 00:04:39;;;;;;;2.05;1.20;;;17.90;96.40;;;;;;5090933;28;20641;-68
2022/04/30 00:07:06;;;;;;;1.75;1.25;;;17.90;96.50;;;;;;5088294;28;20041;-70
2022/04/30 00:09:34;;;;;;;3.25;1.60;;;17.90;96.50;;;;;;5090607;28;20023;-70
2022/04/30 00:12:01;;;;;;;5.90;1.90;;;17.90;96.50;;;;;;5090769;28;20485;-70
2022/04/30 00:14:29;;;;;;;2.97;1.50;;;17.90;96.50;;;;;;5090952;28;20376;-70
2022/04/30 00:16:56;;;;;;;5.05;1.60;;;17.90;96.40;;;;;;5089150;28;20081;-69
2022/04/30 00:19:24;;;;;;;8.40;4.60;;;17.90;96.40;;;;;;5089271;28;20031;-66
2022/04/30 00:21:51;;;;;;;10.60;4.28;;;17.90;96.50;;;;;;5089421;28;20048;-65
2022/04/30 00:24:19;;;;;;;8.77;4.95;;;17.90;96.40;;;;;;5090651;28;20035;-66
2022/04/30 00:26:46;;;;;;;7.80;3.63;;;17.90;96.40;;;;;;5089085;28;20047;-70
2022/04/30 00:29:14;;;;;;;7.30;4.07;;;17.90;96.30;;;;;;5089367;28;20073;-70
2022/04/30 00:33:52;;;;;;;10.18;5.93;;;17.90;96.30;;;;;;5127950;27;20503;-72
2022/04/30 00:36:20;;;;;;;10.35;5.07;;;17.90;96.50;;;;;;5072927;28;20392;-69
2022/04/30 00:38:47;;;;;;;12.10;4.47;;;17.90;96.50;;;;;;5099556;28;20019;-68
2022/04/30 00:41:17;;;;;;;12.82;5.20;;;18.00;96.60;;;;;;5086399;28;20523;-66
2022/04/30 00:43:53;;;;;;;9.00;4.32;;;18.00;96.40;;;;;;5088045;28;20122;-66
2022/04/30 00:46:23;;;;;;;7.80;4.05;;;18.00;96.30;;;;;;5071193;28;20020;-68
2022/04/30 00:48:51;;;;;;;6.43;2.58;;;18.00;96.20;;;;;;5088038;28;20077;-67
2022/04/30 00:51:19;;;;;;;8.27;2.20;;;18.00;96.10;;;;;;5104825;28;20077;-69
2022/04/30 00:53:48;;;;;;;3.92;2.08;;;18.00;96.20;;;;;;5103963;28;20041;-69
2022/04/30 00:56:18;;;;;;;5.03;2.40;;;18.00;96.00;;;;;;5094827;28;20028;-66
2022/04/30 00:58:45;;;;;;;6.25;2.95;;;18.00;96.00;;;;;;5056491;28;20054;-67
2022/04/30 01:01:13;;;;;;;17.60;9.63;;;18.00;95.80;;;;;;5056996;28;20393;-67
2022/04/30 01:03:40;;;;;;;20.17;13.65;;;17.90;95.90;;;;;;5056802;28;20126;-68
2022/04/30 01:06:08;;;;;;;16.20;11.30;;;17.90;95.90;;;;;;5065347;28;20031;-69
2022/04/30 01:08:37;;;;;;;18.23;8.77;;;17.90;95.70;;;;;;5055112;28;20401;-69
2022/04/30 01:11:04;;;;;;;9.23;5.88;;;17.80;95.60;;;;;;5067292;28;20013;-68
2022/04/30 01:13:36;;;;;;;6.32;3.33;;;17.80;95.70;;;;;;5057471;28;20533;-68
2022/04/30 01:16:04;;;;;;;6.18;1.95;;;17.80;95.70;;;;;;5062335;28;20056;-68
2022/04/30 01:18:34;;;;;;;3.40;1.40;;;17.80;95.50;;;;;;5066500;28;20444;-67
2022/04/30 01:21:04;;;;;;;5.38;1.42;;;17.90;95.40;;;;;;5053027;28;20028;-68
2022/04/30 01:23:32;;;;;;;5.05;1.88;;;17.80;95.60;;;;;;5083459;28;20055;-69
2022/04/30 01:26:03;;;;;;;7.47;2.38;;;17.80;95.10;;;;;;5059803;28;20100;-67
2022/04/30 01:28:30;;;;;;;6.57;2.05;;;17.80;95.30;;;;;;5083269;28;20036;-67
2022/04/30 01:30:58;;;;;;;3.45;1.75;;;17.80;95.40;;;;;;5047630;28;20077;-68
2022/04/30 01:38:59;;;;;;;4.65;1.27;;;17.70;95.50;;;;;;5077692;28;20036;-67
2022/04/30 01:41:26;;;;;;;5.03;1.38;;;17.80;95.50;;;;;;5082690;28;20017;-68
2022/04/30 01:43:57;;;;;;;5.80;1.73;;;17.80;95.50;;;;;;5069307;28;20039;-68
2022/04/30 01:46:24;;;;;;;5.18;1.85;;;17.80;95.40;;;;;;5036774;28;20045;-67
2022/04/30 01:48:51;;;;;;;3.13;1.60;;;17.80;95.60;;;;;;5033023;28;20402;-67
2022/04/30 01:51:19;;;;;;;3.42;1.40;;;17.80;95.70;;;;;;5050276;28;20108;-68
2022/04/30 01:53:46;;;;;;;3.30;1.60;;;17.80;95.50;;;;;;5039376;28;20033;-68
2022/04/30 01:56:13;;;;;;;3.67;1.52;;;17.80;95.60;;;;;;5060923;28;20450;-69
2022/04/30 01:58:40;;;;;;;3.05;1.17;;;17.90;95.50;;;;;;5061670;28;20124;-69
2022/04/30 02:01:09;;;;;;;4.05;1.40;;;17.90;95.10;;;;;;5042241;28;20477;-68
2022/04/30 02:03:37;;;;;;;4.20;1.38;;;17.90;95.00;;;;;;5034627;28;20032;-68
2022/04/30 02:06:05;;;;;;;6.57;1.50;;;17.80;94.80;;;;;;5036521;28;20098;-68
2022/04/30 02:08:33;;;;;;;3.40;1.50;;;17.90;95.00;;;;;;5049708;28;20489;-68
2022/04/30 02:11:00;;;;;;;4.32;1.77;;;17.90;95.00;;;;;;5034182;28;20033;-67
2022/04/30 02:13:28;;;;;;;4.95;1.75;;;17.90;94.90;;;;;;5034955;28;20033;-68
2022/04/30 02:15:55;;;;;;;2.60;1.58;;;17.90;95.00;;;;;;5050640;28;20071;-68
2022/04/30 02:18:22;;;;;;;3.65;2.00;;;17.90;94.90;;;;;;5041450;28;20550;-69
2022/04/30 02:20:50;;;;;;;3.22;1.98;;;17.90;95.20;;;;;;5070913;28;20081;-70
2022/04/30 02:23:17;;;;;;;4.22;1.88;;;18.00;95.00;;;;;;5070841;28;20032;-68
2022/04/30 02:25:45;;;;;;;4.82;2.13;;;17.90;95.10;;;;;;5046217;28;20050;-69
2022/04/30 02:28:12;;;;;;;5.88;1.75;;;18.00;95.10;;;;;;5039599;28;20025;-69
2022/04/30 02:30:39;;;;;;;2.90;1.92;;;18.00;95.10;;;;;;5038876;28;20083;-68
2022/04/30 02:33:11;;;;;;;3.40;2.08;;;18.00;95.00;;;;;;5061801;28;20493;-69
2022/04/30 02:35:41;;;;;;;3.15;1.42;;;18.10;95.00;;;;;;5017790;28;20025;-69
2022/04/30 02:38:09;;;;;;;10.63;8.88;;;18.00;94.70;;;;;;5050106;28;20032;-69
2022/04/30 02:40:36;;;;;;;9.15;8.18;;;18.00;94.60;;;;;;5051111;28;20021;-68
2022/04/30 02:43:11;;;;;;;8.75;7.93;;;18.10;94.60;;;;;;5055752;28;20024;-69
2022/04/30 02:45:37;;;;;;;;;;;18.10;94.40;;;;;;5061339;28;20021;-68
2022/04/30 02:48:06;;;;;;;5.30;1.80;;;18.10;94.80;;;;;;5065959;28;19940;-69
2022/04/30 02:50:34;;;;;;;2.20;1.00;;;18.10;94.80;;;;;;5046650;28;20028;-68
2022/04/30 02:53:01;;;;;;;17.38;12.52;;;18.10;94.10;;;;;;5049909;28;20722;-70
2022/04/30 02:55:28;;;;;;;12.30;9.10;;;18.10;94.30;;;;;;5057296;28;20024;-68
2022/04/30 03:00:48;;;;;;;6.10;3.80;;;18.10;94.70;;;;;;5039820;28;20063;-68
2022/04/30 03:03:16;;;;;;;5.38;3.13;;;18.20;94.70;;;;;;5050136;28;20036;-68
2022/04/30 03:05:44;;;;;;;4.32;3.03;;;18.20;94.50;;;;;;5049780;28;20108;-68
2022/04/30 03:08:12;;;;;;;4.20;1.70;;;18.20;94.80;;;;;;5034263;28;20025;-68
2022/04/30 03:10:45;;;;;;;3.67;2.10;;;18.20;93.80;;;;;;5069311;28;20232;-68
2022/04/30 03:13:14;;;;;;;3.25;1.42;;;18.20;94.40;;;;;;5034087;28;20044;-68
2022/04/30 03:15:45;;;;;;;3.92;2.10;;;18.20;94.50;;;;;;5049486;28;20465;-69
2022/04/30 03:23:37;;;;;;;5.50;2.25;;;18.30;94.80;;;;;;5049569;28;20493;-68
2022/04/30 03:26:06;;;;;;;7.43;4.40;;;18.40;95.00;;;;;;5069447;28;20036;-68
2022/04/30 03:28:33;;;;;;;4.72;2.08;;;18.50;95.10;;;;;;5064423;28;20025;-68
2022/04/30 03:31:01;;;;;;;6.40;1.77;;;18.50;95.20;;;;;;5070451;28;20126;-68
2022/04/30 03:33:28;;;;;;;3.13;1.48;;;18.60;94.80;;;;;;5068882;28;20045;-68
2022/04/30 03:35:55;;;;;;;4.43;1.52;;;18.60;94.90;;;;;;5069117;28;20016;-68
2022/04/30 03:38:22;;;;;;;2.90;1.67;;;18.60;94.60;;;;;;5070180;28;20557;-69
2022/04/30 03:40:49;;;;;;;3.75;1.90;;;18.60;94.40;;;;;;5052539;28;20162;-69
2022/04/30 03:43:18;;;;;;;3.72;1.55;;;18.60;94.40;;;;;;5069497;28;20021;-68
2022/04/30 03:45:45;;;;;;;9.63;7.30;;;18.60;94.20;;;;;;5069165;28;20036;-68
2022/04/30 03:48:13;;;;;;;11.43;8.25;;;18.60;94.20;;;;;;5062548;28;20013;-68
2022/04/30 03:50:41;;;;;;;4.30;3.15;;;18.60;94.30;;;;;;5048804;28;20060;-68
2022/04/30 03:53:09;;;;;;;4.63;1.95;;;18.70;94.50;;;;;;5048694;28;20037;-68
2022/04/30 03:55:36;;;;;;;3.38;1.85;;;18.70;94.40;;;;;;5048466;28;20421;-68
2022/04/30 03:58:03;;;;;;;5.88;1.98;;;18.80;94.30;;;;;;5049640;28;20023;-68
2022/04/30 04:00:30;;;;;;;3.03;1.75;;;18.80;94.20;;;;;;5059825;28;20055;-68
2022/04/30 04:02:58;;;;;;;3.67;1.55;;;18.80;94.00;;;;;;5036964;28;20021;-69
2022/04/30 04:05:26;;;;;;;2.95;1.80;;;18.80;94.00;;;;;;5048567;28;20388;-69
2022/04/30 04:07:54;;;;;;;6.47;1.60;;;18.80;93.70;;;;;;5049370;28;20075;-69
2022/04/30 04:10:21;;;;;;;2.72;1.83;;;18.80;93.60;;;;;;5031892;28;20048;-73
2022/04/30 04:12:48;;;;;;;3.75;2.00;;;18.80;93.50;;;;;;5059120;28;20532;-68
2022/04/30 04:18:01;;;;;;;4.53;2.30;;;19.00;93.60;;;;;;5056598;28;20078;-69
2022/04/30 04:20:28;;;;;;;5.00;2.22;;;19.00;93.00;;;;;;5050313;28;20028;-68
2022/04/30 04:22:58;;;;;;;3.97;1.80;;;19.00;93.10;;;;;;5067866;28;20032;-68
2022/04/30 04:28:24;;;;;;;4.35;1.60;;;19.20;92.30;;;;;;5035207;28;20074;-69
2022/04/30 04:30:51;;;;;;;2.95;1.50;;;19.30;92.60;;;;;;5068139;28;20086;-68
2022/04/30 04:33:19;;;;;;;3.50;1.67;;;19.30;92.60;;;;;;5053590;28;20137;-67
2022/04/30 04:35:46;;;;;;;3.92;1.48;;;19.40;92.10;;;;;;5066880;28;20035;-67
2022/04/30 04:38:13;;;;;;;5.35;1.13;;;19.50;91.80;;;;;;5067846;28;20469;-68
2022/04/30 04:40:40;;;;;;;2.20;1.23;;;19.50;91.70;;;;;;5037933;28;20028;-68
2022/04/30 04:43:07;;;;;;;3.20;1.50;;;19.60;91.70;;;;;;5068281;28;20031;-68
2022/04/30 04:45:34;;;;;;;2.88;1.45;;;19.60;91.50;;;;;;5067896;28;20020;-69
2022/04/30 04:48:02;;;;;;;5.43;1.25;;;19.70;91.50;;;;;;5044829;28;20033;-68
2022/04/30 04:50:29;;;;;;;2.35;1.20;;;19.80;90.90;;;;;;5031848;28;20100;-68
2022/04/30 04:52:56;;;;;;;4.43;1.70;;;19.80;91.00;;;;;;5048036;28;20075;-69
2022/04/30 04:55:24;;;;;;;2.17;1.05;;;19.90;91.20;;;;;;5031264;28;20104;-68
2022/04/30 04:57:51;;;;;;;2.00;1.02;;;19.90;90.40;;;;;;5015904;28;20516;-69
2022/04/30 05:00:18;;;;;;;2.85;1.17;;;20.00;90.60;;;;;;5067997;28;20394;-68
2022/04/30 05:02:45;;;;;;;1.88;1.20;;;19.90;89.60;;;;;;5034976;28;20027;-68
2022/04/30 05:05:14;;;;;;;4.00;1.50;;;19.90;89.60;;;;;;5060402;28;20056;-68
2022/04/30 05:07:41;;;;;;;2.88;1.25;;;19.90;89.70;;;;;;5057095;28;20691;-68
2022/04/30 05:10:08;;;;;;;3.00;1.33;;;19.90;90.30;;;;;;5059987;28;20087;-69
2022/04/30 05:12:35;;;;;;;3.08;1.30;;;19.90;90.00;;;;;;5062595;28;20041;-69
2022/04/30 05:15:03;;;;;;;3.03;1.15;;;19.90;90.10;;;;;;5039788;28;20480;-66
2022/04/30 05:17:31;;;;;;;5.00;1.25;;;19.90;90.30;;;;;;5054856;28;20033;-66
2022/04/30 05:19:58;;;;;;;2.70;1.27;;;19.80;90.20;;;;;;5033908;28;20029;-66
2022/04/30 05:22:25;;;;;;;2.85;1.27;;;19.80;89.90;;;;;;5035078;28;20029;-66
2022/04/30 05:24:52;;;;;;;2.58;1.45;;;19.80;90.20;;;;;;5052668;28;20428;-67
2022/04/30 05:27:20;;;;;;;3.50;1.23;;;19.70;89.90;;;;;;5035394;28;20025;-66
2022/04/30 05:29:47;;;;;;;2.50;1.00;;;19.60;90.20;;;;;;5053267;28;20021;-67
2022/04/30 05:32:14;;;;;;;3.05;1.35;;;19.60;90.20;;;;;;5052531;28;20037;-67
2022/04/30 05:34:41;;;;;;;3.42;1.10;;;19.50;90.20;;;;;;5051493;28;20036;-67
2022/04/30 05:37:08;;;;;;;3.85;1.23;;;19.50;89.90;;;;;;5046941;28;20027;-67
2022/04/30 05:39:35;;;;;;;1.33;0.80;;;19.50;90.20;;;;;;5068713;28;20385;-69
2022/04/30 05:42:03;;;;;;;1.73;0.77;;;19.40;90.50;;;;;;5059905;28;20584;-69
2022/04/30 05:44:30;;;;;;;1.38;0.80;;;19.40;90.30;;;;;;5071019;28;20110;-69
2022/04/30 05:46:57;;;;;;;4.10;0.93;;;19.30;90.20;;;;;;5055544;28;20045;-69
2022/04/30 05:49:24;;;;;;;2.60;0.80;;;19.20;90.10;;;;;;5052361;28;20119;-69
2022/04/30 05:51:51;;;;;;;4.60;0.80;;;19.10;90.00;;;;;;5052503;28;20116;-68
2022/04/30 05:54:19;;;;;;;2.40;1.10;;;19.00;90.00;;;;;;5054814;28;20051;-69
2022/04/30 05:56:46;;;;;;;1.60;0.98;;;18.90;88.80;;;;;;5068090;28;20027;-69
2022/04/30 05:59:14;;;;;;;2.03;1.10;;;18.80;89.30;;;;;;5069696;28;20028;-69
2022/04/30 06:01:41;;;;;;;2.72;0.98;;;18.80;89.60;;;;;;5069728;28;20488;-69
2022/04/30 06:04:08;;;;;;;1.63;1.00;;;18.70;90.20;;;;;;5069616;28;20108;-69
2022/04/30 06:06:35;;;;;;;2.78;1.20;;;18.50;90.30;;;;;;5069912;28;20025;-70
2022/04/30 06:09:02;;;;;;;2.10;1.08;;;18.50;90.70;;;;;;5069004;28;20032;-69
2022/04/30 06:11:30;;;;;;;5.30;1.48;;;18.40;90.90;;;;;;5069557;28;20032;-68
2022/04/30 06:13:57;;;;;;;2.83;1.52;;;18.40;90.90;;;;;;5067257;28;20029;-68
2022/04/30 06:16:24;;;;;;;4.18;2.20;;;18.30;91.30;;;;;;5055377;28;20063;-67
2022/04/30 06:18:51;;;;;;;5.10;1.88;;;18.30;91.60;;;;;;5071333;28;20137;-67
2022/04/30 06:21:18;;;;;;;3.30;1.58;;;18.30;92.30;;;;;;5054525;28;20075;-66
2022/04/30 06:23:45;;;;;;;4.78;1.73;;;18.40;92.40;;;;;;5051596;28;20028;-63
2022/04/30 06:26:13;;;;;;;2.10;1.35;;;18.40;92.00;;;;;;5053501;28;20098;-70
2022/04/30 06:28:40;;;;;;;4.95;2.00;;;18.30;92.10;;;;;;5062729;28;20036;-66
2022/04/30 06:31:07;;;;;;;3.95;2.03;;;18.30;92.20;;;;;;5054678;28;20055;-67
2022/04/30 06:33:34;;;;;;;4.07;2.60;;;18.20;92.00;;;;;;5058562;28;20047;-67
2022/04/30 06:36:01;;;;;;;4.45;1.67;;;18.20;92.20;;;;;;5070405;28;20024;-68
2022/04/30 06:38:28;;;;;;;3.05;1.83;;;18.10;92.30;;;;;;5056516;28;20435;-67
2022/04/30 06:40:55;;;;;;;2.25;1.25;;;18.10;92.20;;;;;;5050386;28;20044;-67
2022/04/30 06:43:23;;;;;;;3.72;1.67;;;18.10;92.20;;;;;;5066789;28;20032;-67
2022/04/30 06:45:50;;;;;;;2.60;1.48;;;18.00;92.10;;;;;;5051716;28;20033;-63
2022/04/30 06:48:17;;;;;;;2.47;1.40;;;17.90;92.30;;;;;;5068507;28;20028;-65
2022/04/30 06:50:45;;;;;;;6.28;1.50;;;17.80;92.60;;;;;;5055499;28;20048;-65
2022/04/30 06:58:53;;;;;;;3.05;1.40;;;17.50;92.80;;;;;;5056157;28;20067;-63
2022/04/30 07:04:01;;;;;;;3.70;1.40;;;17.20;93.20;;;;;;5050851;28;20037;-63
2022/04/30 07:06:32;;;;;;;2.15;1.10;;;17.10;93.60;;;;;;5064358;28;20115;-62
2022/04/30 07:08:59;;;;;;;8.25;1.80;;;17.00;93.30;;;;;;5035152;28;20120;-63
2022/04/30 07:11:27;;;;;;;4.07;1.40;;;16.90;93.30;;;;;;5042588;28;20119;-62
2022/04/30 07:13:54;;;;;;;5.38;2.55;;;16.80;93.40;;;;;;5049748;28;20033;-62
2022/04/30 07:16:21;;;;;;;9.18;5.18;;;16.60;93.50;;;;;;5049759;28;20484;-63
2022/04/30 07:18:48;;;;;;;6.22;2.72;;;16.50;94.10;;;;;;5059917;28;20033;-64
2022/04/30 07:21:15;;;;;;;3.17;1.77;;;16.50;94.20;;;;;;5047778;28;20044;-63
2022/04/30 07:23:43;;;;;;;2.50;1.58;;;16.40;94.80;;;;;;5047773;28;20059;-64
2022/04/30 07:26:10;;;;;;;6.30;2.80;;;16.40;94.30;;;;;;5066264;28;20035;-64
2022/04/30 07:28:37;;;;;;;4.40;2.35;;;16.30;94.30;;;;;;5067445;28;20027;-64
2022/04/30 07:31:05;;;;;;;13.20;2.88;;;16.10;94.20;;;;;;5067352;28;20426;-64
2022/04/30 07:33:32;;;;;;;5.75;2.33;;;16.10;94.30;;;;;;5051888;28;20554;-62
2022/04/30 07:35:59;;;;;;;4.55;1.92;;;15.90;94.20;;;;;;5049804;28;20031;-61
2022/04/30 07:38:27;;;;;;;5.28;2.28;;;15.80;94.50;;;;;;5049366;28;20075;-61
2022/04/30 07:40:54;;;;;;;8.40;3.45;;;15.70;94.10;;;;;;5051010;28;20029;-61
2022/04/30 07:43:21;;;;;;;5.65;2.88;;;15.50;94.10;;;;;;5049177;28;20527;-61
2022/04/30 07:45:48;;;;;;;4.30;2.60;;;15.40;94.40;;;;;;5050565;28;20073;-61
2022/04/30 07:48:15;;;;;;;5.05;3.28;;;15.40;94.70;;;;;;5050092;28;20025;-62
2022/04/30 07:50:45;;;;;;;4.30;3.05;;;15.40;95.50;;;;;;5049779;28;20028;-61
2022/04/30 07:53:14;;;;;;;6.18;2.80;;;15.40;95.30;;;;;;5049955;28;20041;-61
2022/04/30 07:55:42;;;;;;;21.35;9.77;;;15.30;95.40;;;;;;5050982;28;20097;-61
2022/04/30 07:58:09;;;;;;;24.95;12.93;;;15.20;95.00;;;;;;5048863;28;20029;-61
2022/04/30 08:00:37;;;;;;;15.52;9.07;;;15.20;95.10;;;;;;5062944;28;20032;-62
2022/04/30 08:03:04;;;;;;;10.23;5.55;;;15.10;95.00;;;;;;5069866;28;20025;-62
2022/04/30 08:05:31;;;;;;;9.07;4.65;;;14.90;94.70;;;;;;5068538;28;20028;-62
2022/04/30 08:07:58;;;;;;;7.45;4.35;;;14.90;95.00;;;;;;5069598;28;20032;-62
2022/04/30 08:10:25;;;;;;;14.70;7.38;;;15.10;97.30;;;;;;5068445;28;20059;-61
2022/04/30 08:12:56;;;;;;;10.95;4.93;;;15.40;98.00;;;;;;5069618;28;20117;-62
2022/04/30 08:15:24;;;;;;;7.70;4.32;;;15.40;97.20;;;;;;5062016;28;20024;-61
2022/04/30 08:17:52;;;;;;;9.07;3.50;;;15.50;96.90;;;;;;5068764;28;20063;-61
2022/04/30 08:20:19;;;;;;;6.50;3.05;;;15.50;96.90;;;;;;5068706;28;20149;-62
2022/04/30 08:22:47;;;;;;;6.25;2.78;;;15.50;97.00;;;;;;5069583;28;20029;-61
2022/04/30 08:25:14;;;;;;;4.93;2.72;;;15.60;97.20;;;;;;5057503;28;20144;-61
2022/04/30 08:27:41;;;;;;;6.20;2.42;;;15.70;97.20;;;;;;5049519;28;20036;-61
2022/04/30 08:30:10;;;;;;;7.70;3.05;;;15.60;96.70;;;;;;5057654;28;20028;-61
2022/04/30 08:32:37;;;;;;;5.20;2.58;;;15.40;95.70;;;;;;5069287;28;20126;-60
2022/04/30 08:35:04;;;;;;;6.72;2.75;;;15.20;95.60;;;;;;5051993;28;20025;-61
2022/04/30 08:37:32;;;;;;;6.72;3.15;;;15.10;95.60;;;;;;5056752;28;20029;-61
2022/04/30 08:39:59;;;;;;;7.55;3.03;;;14.90;95.30;;;;;;5066604;28;20021;-61
2022/04/30 08:42:26;;;;;;;6.28;2.28;;;14.80;95.90;;;;;;5065928;28;20024;-61
2022/04/30 08:44:53;;;;;;;4.90;2.28;;;14.70;96.30;;;;;;5057179;28;20021;-63
2022/04/30 08:47:20;;;;;;;7.05;2.70;;;14.70;96.20;;;;;;5058392;28;20377;-62
2022/04/30 08:49:48;;;;;;;4.97;1.98;;;14.80;97.20;;;;;;5058893;28;20106;-62
2022/04/30 08:52:15;;;;;;;3.60;2.08;;;14.90;97.20;;;;;;5036439;28;20446;-61
2022/04/30 08:54:43;;;;;;;8.00;2.17;;;14.90;96.90;;;;;;5047743;28;20031;-62
2022/04/30 08:57:11;;;;;;;4.93;1.88;;;14.90;96.10;;;;;;5070839;28;20063;-62
2022/04/30 08:59:38;;;;;;;3.92;1.70;;;14.90;95.20;;;;;;5070815;28;20443;-61
2022/04/30 09:02:10;;;;;;;8.25;1.77;;;14.90;95.00;;;;;;5058358;28;20127;-62
2022/04/30 09:04:48;;;;;;;6.95;1.75;;;14.90;94.30;;;;;;5069685;28;20513;-62
2022/04/30 09:07:17;;;;;;;3.65;1.30;;;14.80;93.80;;;;;;5062053;28;20544;-61
2022/04/30 09:09:45;;;;;;;3.67;1.20;;;14.70;93.60;;;;;;5063750;28;20024;-62
2022/04/30 09:12:16;;;;;;;3.00;1.20;;;14.60;93.20;;;;;;5069039;28;20527;-60
2022/04/30 09:14:43;;;;;;;2.92;1.20;;;14.60;92.50;;;;;;5068049;28;20689;-61
2022/04/30 09:17:12;;;;;;;3.35;1.15;;;14.60;91.90;;;;;;5061913;28;20040;-61
2022/04/30 09:19:56;;;;;;;4.05;0.98;;;14.60;91.80;;;;;;5049480;28;20048;-60
2022/04/30 09:22:33;;;;;;;2.45;0.80;;;14.50;90.90;;;;;;5049417;28;20108;-60
2022/04/30 09:25:02;;;;;;;3.22;0.90;;;14.60;89.40;;;;;;5070012;28;20021;-61
2022/04/30 09:27:29;;;;;;;2.15;0.80;;;14.50;89.90;;;;;;5053586;28;20043;-61
2022/04/30 09:29:57;;;;;;;2.08;0.90;;;14.40;89.90;;;;;;5058357;28;20024;-60
2022/04/30 09:32:25;;;;;;;2.08;0.90;;;14.40;89.40;;;;;;5066348;28;20070;-61
2022/04/30 09:37:41;;;;;;;2.78;1.08;;;14.40;87.00;;;;;;5036099;28;20036;-61
2022/04/30 09:40:15;;;;;;;3.33;0.85;;;14.30;87.70;;;;;;5049025;28;20440;-62
2022/04/30 09:42:43;;;;;;;2.60;0.85;;;14.10;88.10;;;;;;5049779;28;20485;-60
2022/04/30 09:45:21;;;;;;;2.22;0.80;;;13.90;88.70;;;;;;5048838;28;20039;-60
2022/04/30 09:47:48;;;;;;;3.53;0.90;;;13.80;88.90;;;;;;5060250;28;20032;-59
2022/04/30 09:55:53;;;;;;;1.70;0.93;;;13.30;90.20;;;;;;5066487;28;20028;-60
2022/04/30 09:58:27;;;;;;;1.33;0.70;;;13.20;90.50;;;;;;5050736;28;20039;-60
2022/04/30 10:00:58;;;;;;;6.65;0.80;;;13.20;90.50;;;;;;5068380;28;20032;-60
2022/04/30 10:03:29;;;;;;;4.05;1.85;;;13.10;90.70;;;;;;5069777;28;20021;-62
2022/04/30 10:06:04;;;;;;;2.42;1.08;;;13.00;90.60;;;;;;5052511;28;20043;-61
2022/04/30 10:08:37;;;;;;;;;;;13.00;90.80;;;;;;5051104;28;20035;-64
2022/04/30 10:11:19;;;;;;;3.50;1.45;;;12.90;91.00;;;;;;5050750;28;20007;-64
2022/04/30 10:14:10;;;;;;;4.60;1.40;;;12.90;91.00;;;;;;5049606;28;20045;-63
2022/04/30 10:16:38;;;;;;;5.18;1.80;;;12.80;90.40;;;;;;5067782;28;20028;-64
2022/04/30 10:19:13;;;;;;;4.38;1.58;;;12.60;90.60;;;;;;5064799;28;20024;-64
2022/04/30 10:21:40;;;;;;;4.65;1.85;;;12.50;91.00;;;;;;5063366;28;20072;-59
2022/04/30 10:24:12;;;;;;;5.95;1.60;;;12.40;91.20;;;;;;5053992;28;20031;-60
2022/04/30 10:26:39;;;;;;;4.90;1.40;;;12.30;90.80;;;;;;5061707;28;20475;-60
2022/04/30 10:29:13;;;;;;;4.05;1.50;;;12.20;91.30;;;;;;5032346;28;20039;-60
2022/04/30 10:31:44;;;;;;;2.03;1.25;;;12.10;91.10;;;;;;5062484;28;20115;-60
2022/04/30 10:34:12;;;;;;;5.00;1.23;;;12.10;91.10;;;;;;5067404;28;20032;-60
2022/04/30 10:36:40;;;;;;;7.32;1.30;;;12.10;90.60;;;;;;5049409;28;20601;-60
2022/04/30 10:39:09;;;;;;;7.22;1.20;;;12.10;90.50;;;;;;5044026;28;20051;-60
2022/04/30 10:41:43;;;;;;;3.88;1.48;;;12.10;90.40;;;;;;5053700;28;20031;-59
2022/04/30 10:44:12;;;;;;;4.97;1.08;;;12.20;90.40;;;;;;5066167;28;20074;-59
2022/04/30 10:46:45;;;;;;;6.25;1.33;;;12.30;90.00;;;;;;5065229;28;20104;-59
2022/04/30 10:49:12;;;;;;;5.38;1.17;;;12.30;89.30;;;;;;5035521;28;20024;-59
2022/04/30 10:51:44;;;;;;;2.03;0.90;;;12.40;88.30;;;;;;5066989;28;20150;-61
2022/04/30 10:54:18;;;;;;;4.40;1.52;;;12.50;87.70;;;;;;5062761;28;20153;-61
2022/04/30 10:56:46;;;;;;;5.55;1.20;;;12.60;86.60;;;;;;5063979;28;20021;-61
2022/04/30 10:59:22;;;;;;;5.75;0.85;;;12.60;86.80;;;;;;5066209;28;20040;-61
2022/04/30 11:01:49;;;;;;;4.10;1.00;;;12.70;86.30;;;;;;5066677;28;20025;-61
2022/04/30 11:04:20;;;;;;;1.75;0.75;;;12.80;85.40;;;;;;5068693;28;20020;-61
2022/04/30 11:06:51;;;;;;;2.72;0.70;;;12.70;85.90;;;;;;5036139;28;20137;-62
2022/04/30 11:09:19;;;;;;;3.05;0.70;;;12.80;85.10;;;;;;5054777;28;20081;-61
2022/04/30 11:11:48;;;;;;;2.38;0.70;;;12.70;85.60;;;;;;5067121;28;20033;-60
2022/04/30 11:14:22;;;;;;;2.03;0.95;;;12.70;85.60;;;;;;5067133;28;20485;-60
2022/04/30 11:16:52;;;;;;;2.63;0.90;;;12.70;86.00;;;;;;5067281;28;20052;-60
2022/04/30 11:19:23;;;;;;;5.43;1.05;;;12.60;85.90;;;;;;5059495;28;20087;-61
2022/04/30 11:21:52;;;;;;;2.08;0.85;;;12.50;85.50;;;;;;5049342;28;20024;-60
2022/04/30 11:24:28;;;;;;;1.67;1.30;;;12.50;85.80;;;;;;5054284;28;20020;-61
2022/04/30 11:26:58;;;;;;;4.57;0.90;;;12.50;86.60;;;;;;5064526;28;20071;-60
2022/04/30 11:29:26;;;;;;;6.22;1.20;;;12.30;86.80;;;;;;5047606;28;20036;-60
2022/04/30 11:31:53;;;;;;;2.70;0.93;;;12.20;87.40;;;;;;5055733;28;20066;-60
2022/04/30 11:34:21;;;;;;;4.90;1.50;;;12.20;87.70;;;;;;5068090;28;20040;-61
2022/04/30 11:36:52;;;;;;;3.72;1.10;;;12.10;87.80;;;;;;5049958;28;20028;-60
2022/04/30 11:39:20;;;;;;;2.92;1.10;;;12.00;88.30;;;;;;5066717;28;20036;-61
2022/04/30 11:41:48;;;;;;;5.80;0.90;;;12.00;87.40;;;;;;5064718;28;20033;-61
2022/04/30 11:44:17;;;;;;;1.80;0.80;;;12.00;87.20;;;;;;5066519;28;20023;-61
2022/04/30 11:46:45;;;;;;;5.38;0.77;;;12.00;87.80;;;;;;5052929;28;20029;-62
2022/04/30 11:49:15;;;;;;;1.10;0.70;;;12.10;86.50;;;;;;5051559;28;20024;-62
2022/04/30 11:51:43;;;;;;;7.57;0.95;;;12.10;86.00;;;;;;5046558;28;20029;-60
2022/04/30 11:54:11;;;;;;;4.75;0.95;;;12.10;86.60;;;;;;5063189;28;20086;-61
2022/04/30 11:56:39;;;;;;;4.53;0.93;;;12.00;86.40;;;;;;5051907;28;20029;-60
2022/04/30 11:59:06;;;;;;;1.30;0.70;;;12.00;86.70;;;;;;5048923;28;20028;-61
2022/04/30 12:01:35;;;;;;;3.38;0.88;;;12.00;86.20;;;;;;5051848;28;20033;-61
2022/04/30 12:04:04;;;;;;;5.65;0.82;;;12.00;86.30;;;;;;5036526;28;20468;-59
2022/04/30 12:06:32;;;;;;;3.83;0.60;;;11.80;87.30;;;;;;5056801;28;20028;-62
2022/04/30 12:09:00;;;;;;;2.95;0.80;;;11.80;88.30;;;;;;5052911;28;20370;-59
2022/04/30 12:11:27;;;;;;;2.65;0.75;;;11.70;88.40;;;;;;5053914;28;20508;-59
2022/04/30 12:14:13;;;;;;;2.53;0.75;;;11.60;88.40;;;;;;5045472;28;20037;-60
2022/04/30 12:16:41;;;;;;;7.90;1.13;;;11.50;88.80;;;;;;5044189;28;20020;-61
2022/04/30 12:25:09;;;;;;;3.90;0.50;;;11.40;89.20;;;;;;5058831;28;20450;-60
2022/04/30 12:27:40;;;;;;;1.95;0.70;;;11.30;89.90;;;;;;5055613;28;20025;-60
2022/04/30 12:30:17;;;;;;;1.58;0.70;;;11.30;89.10;;;;;;5056288;28;20055;-60
2022/04/30 12:32:52;;;;;;;3.95;0.80;;;11.20;89.30;;;;;;5055378;28;20075;-59
2022/04/30 12:35:33;;;;;;;2.20;0.70;;;11.10;90.00;;;;;;5060466;28;20029;-60
2022/04/30 12:38:13;;;;;;;4.95;1.45;;;11.00;90.40;;;;;;5061495;28;20090;-60
2022/04/30 12:40:42;;;;;;;2.42;0.77;;;10.90;90.20;;;;;;5057688;28;20027;-63
2022/04/30 12:43:09;;;;;;;1.88;0.93;;;10.70;90.00;;;;;;5057258;28;20054;-62
2022/04/30 12:45:40;;;;;;;3.10;0.98;;;10.60;90.50;;;;;;5051254;28;20029;-63
2022/04/30 12:48:09;;;;;;;6.13;1.20;;;10.50;90.50;;;;;;5064076;28;20056;-63
2022/04/30 12:50:37;;;;;;;3.17;0.73;;;10.30;90.40;;;;;;5071252;28;20029;-60
2022/04/30 12:53:14;;;;;;;2.45;1.02;;;10.20;91.10;;;;;;5058726;28;20382;-60
2022/04/30 12:55:42;;;;;;;2.40;1.13;;;10.10;91.30;;;;;;5066734;28;20029;-60
2022/04/30 12:58:09;;;;;;;4.47;1.55;;;10.10;91.40;;;;;;5054731;28;20029;-61
2022/04/30 13:00:37;;;;;;;1.77;1.08;;;10.00;91.50;;;;;;5057229;28;20389;-60
2022/04/30 13:03:05;;;;;;;5.65;1.17;;;10.00;91.90;;;;;;5046866;28;20029;-60
2022/04/30 13:05:32;;;;;;;7.10;1.13;;;9.90;91.80;;;;;;5062226;28;20025;-60
2022/04/30 13:07:59;;;;;;;4.28;1.20;;;9.90;91.80;;;;;;5066930;28;20024;-59
2022/04/30 13:15:57;;;;;;;3.10;1.60;;;9.50;92.50;;;;;;5050942;28;20169;-60
2022/04/30 13:18:25;;;;;;;5.65;1.27;;;9.50;92.70;;;;;;5051112;28;20389;-60
2022/04/30 13:20:52;;;;;;;7.97;1.25;;;9.40;92.60;;;;;;5054022;28;20029;-60
2022/04/30 13:23:19;;;;;;;7.13;1.50;;;9.30;92.70;;;;;;5053901;28;20033;-59
2022/04/30 13:25:46;;;;;;;4.45;0.85;;;9.30;92.30;;;;;;5066918;28;20120;-60
2022/04/30 13:28:13;;;;;;;3.90;2.20;;;9.20;92.80;;;;;;5056746;28;20028;-59
2022/04/30 13:30:40;;;;;;;1.83;1.08;;;9.20;93.00;;;;;;5063081;28;20544;-60
2022/04/30 13:33:08;;;;;;;3.80;1.05;;;9.10;93.10;;;;;;5051994;28;20041;-59
2022/04/30 13:35:35;;;;;;;1.73;1.10;;;9.10;93.10;;;;;;5052306;28;20048;-59
2022/04/30 13:38:03;;;;;;;2.38;1.13;;;9.10;93.10;;;;;;5060384;28;20063;-59
2022/04/30 13:40:30;;;;;;;2.92;1.10;;;9.00;92.80;;;;;;5064461;28;20020;-59
2022/04/30 13:42:57;;;;;;;5.55;1.30;;;8.90;92.50;;;;;;5069669;28;20040;-61
2022/04/30 13:45:24;;;;;;;2.08;1.20;;;8.80;93.10;;;;;;5070546;28;20032;-59